sensor_id;sensor_type;location;lat;lon;timestamp;P1;durP1;ratioP1;P2;durP2;ratioP2
4754;SDS011;2391;47.212;7.542;2023-02-28T00:01:22;2.30;;;2.10;;
4754;SDS011;2391;47.212;7.542;2023-02-28T00:03:48;2.13;;;2.03;;
4754;SDS011;2391;47.212;7.542;2023-02-28T00:06:14;4.00;;;2.00;;
4754;SDS011;2391;47.212;7.542;2023-02-28T00:08:40;2.20;;;2.00;;
4754;SDS011;2391;47.212;7.542;2023-02-28T00:11:11;1.83;;;1.73;;
4754;SDS011;2391;47.212;7.542;2023-02-28T00:13:36;2.30;;;2.20;;
4754;SDS011;2391;47.212;7.542;2023-02-28T00:16:06;2.30;;;2.10;;
4754;SDS011;2391;47.212;7.542;2023-02-28T00:18:34;2.53;;;2.33;;
4754;SDS011;2391;47.212;7.542;2023-02-28T00:21:00;2.60;;;2.50;;
4754;SDS011;2391;47.212;7.542;2023-02-28T00:23:26;3.00;;;2.60;;
4754;SDS011;2391;47.212;7.542;2023-02-28T00:25:53;1.80;;;1.70;;
4754;SDS011;2391;47.212;7.542;2023-02-28T00:28:19;2.43;;;1.97;;
4754;SDS011;2391;47.212;7.542;2023-02-28T00:30:45;2.20;;;2.10;;
4754;SDS011;2391;47.212;7.542;2023-02-28T00:33:11;3.37;;;2.43;;
4754;SDS011;2391;47.212;7.542;2023-02-28T00:35:37;1.70;;;1.60;;
4754;SDS011;2391;47.212;7.542;2023-02-28T00:38:03;2.47;;;2.30;;
4754;SDS011;2391;47.212;7.542;2023-02-28T00:40:28;1.97;;;1.70;;
4754;SDS011;2391;47.212;7.542;2023-02-28T00:42:54;2.80;;;2.60;;
4754;SDS011;2391;47.212;7.542;2023-02-28T00:45:20;2.33;;;2.13;;
4754;SDS011;2391;47.212;7.542;2023-02-28T00:47:46;2.50;;;2.30;;
4754;SDS011;2391;47.212;7.542;2023-02-28T00:50:14;2.77;;;2.57;;
4754;SDS011;2391;47.212;7.542;2023-02-28T00:52:39;2.57;;;2.47;;
4754;SDS011;2391;47.212;7.542;2023-02-28T00:55:05;2.63;;;2.07;;
4754;SDS011;2391;47.212;7.542;2023-02-28T00:57:31;2.80;;;2.13;;
4754;SDS011;2391;47.212;7.542;2023-02-28T00:59:57;5.87;;;2.43;;
4754;SDS011;2391;47.212;7.542;2023-02-28T01:02:23;2.93;;;2.73;;
4754;SDS011;2391;47.212;7.542;2023-02-28T01:04:49;4.30;;;2.70;;
4754;SDS011;2391;47.212;7.542;2023-02-28T01:07:14;2.73;;;2.63;;
4754;SDS011;2391;47.212;7.542;2023-02-28T01:09:40;2.30;;;2.20;;
4754;SDS011;2391;47.212;7.542;2023-02-28T01:12:07;2.53;;;2.40;;
4754;SDS011;2391;47.212;7.542;2023-02-28T01:14:33;5.23;;;3.10;;
4754;SDS011;2391;47.212;7.542;2023-02-28T01:17:00;3.47;;;3.17;;
4754;SDS011;2391;47.212;7.542;2023-02-28T01:19:26;6.00;;;3.17;;
4754;SDS011;2391;47.212;7.542;2023-02-28T01:21:52;2.50;;;2.30;;
4754;SDS011;2391;47.212;7.542;2023-02-28T01:24:18;2.87;;;2.57;;
4754;SDS011;2391;47.212;7.542;2023-02-28T01:26:44;4.23;;;2.37;;
4754;SDS011;2391;47.212;7.542;2023-02-28T01:29:09;2.63;;;2.40;;
4754;SDS011;2391;47.212;7.542;2023-02-28T01:31:35;2.90;;;2.60;;
4754;SDS011;2391;47.212;7.542;2023-02-28T01:34:01;2.00;;;1.90;;
4754;SDS011;2391;47.212;7.542;2023-02-28T01:36:27;3.37;;;2.80;;
4754;SDS011;2391;47.212;7.542;2023-02-28T01:38:54;2.50;;;2.30;;
4754;SDS011;2391;47.212;7.542;2023-02-28T01:41:27;2.60;;;2.40;;
4754;SDS011;2391;47.212;7.542;2023-02-28T01:43:53;3.47;;;2.57;;
4754;SDS011;2391;47.212;7.542;2023-02-28T01:46:21;6.20;;;3.07;;
4754;SDS011;2391;47.212;7.542;2023-02-28T01:48:56;3.60;;;3.30;;
4754;SDS011;2391;47.212;7.542;2023-02-28T01:51:29;2.73;;;2.60;;
4754;SDS011;2391;47.212;7.542;2023-02-28T01:54:05;2.50;;;2.30;;
4754;SDS011;2391;47.212;7.542;2023-02-28T01:56:32;2.90;;;2.70;;
4754;SDS011;2391;47.212;7.542;2023-02-28T01:59:00;4.80;;;3.00;;
4754;SDS011;2391;47.212;7.542;2023-02-28T02:01:27;3.60;;;2.90;;
4754;SDS011;2391;47.212;7.542;2023-02-28T02:03:55;2.77;;;2.57;;
4754;SDS011;2391;47.212;7.542;2023-02-28T02:06:29;3.17;;;2.97;;
4754;SDS011;2391;47.212;7.542;2023-02-28T02:08:59;2.57;;;2.47;;
4754;SDS011;2391;47.212;7.542;2023-02-28T02:11:25;2.53;;;2.43;;
4754;SDS011;2391;47.212;7.542;2023-02-28T02:13:57;3.50;;;3.10;;
4754;SDS011;2391;47.212;7.542;2023-02-28T02:36:04;3.43;;;3.13;;
4754;SDS011;2391;47.212;7.542;2023-02-28T02:38:55;4.33;;;2.80;;
4754;SDS011;2391;47.212;7.542;2023-02-28T02:46:51;3.30;;;3.10;;
4754;SDS011;2391;47.212;7.542;2023-02-28T02:49:24;3.70;;;3.00;;
4754;SDS011;2391;47.212;7.542;2023-02-28T02:51:51;2.90;;;2.70;;
4754;SDS011;2391;47.212;7.542;2023-02-28T02:54:21;3.80;;;2.97;;
4754;SDS011;2391;47.212;7.542;2023-02-28T02:56:51;3.00;;;2.80;;
4754;SDS011;2391;47.212;7.542;2023-02-28T02:59:20;3.27;;;3.07;;
4754;SDS011;2391;47.212;7.542;2023-02-28T03:01:51;3.20;;;2.87;;
4754;SDS011;2391;47.212;7.542;2023-02-28T03:04:20;3.17;;;2.97;;
4754;SDS011;2391;47.212;7.542;2023-02-28T03:06:44;3.50;;;3.20;;
4754;SDS011;2391;47.212;7.542;2023-02-28T03:09:10;2.83;;;2.63;;
4754;SDS011;2391;47.212;7.542;2023-02-28T03:11:36;3.73;;;3.43;;
4754;SDS011;2391;47.212;7.542;2023-02-28T03:14:07;4.73;;;3.20;;
4754;SDS011;2391;47.212;7.542;2023-02-28T03:16:46;2.50;;;2.20;;
4754;SDS011;2391;47.212;7.542;2023-02-28T03:19:38;3.23;;;3.03;;
4754;SDS011;2391;47.212;7.542;2023-02-28T03:22:28;3.10;;;2.90;;
4754;SDS011;2391;47.212;7.542;2023-02-28T03:30:41;3.40;;;3.17;;
4754;SDS011;2391;47.212;7.542;2023-02-28T03:33:15;3.40;;;3.10;;
4754;SDS011;2391;47.212;7.542;2023-02-28T03:35:57;3.50;;;3.20;;
4754;SDS011;2391;47.212;7.542;2023-02-28T03:38:33;3.03;;;2.83;;
4754;SDS011;2391;47.212;7.542;2023-02-28T03:41:11;3.90;;;2.90;;
4754;SDS011;2391;47.212;7.542;2023-02-28T03:43:43;3.73;;;3.43;;
4754;SDS011;2391;47.212;7.542;2023-02-28T03:46:12;3.37;;;3.10;;
4754;SDS011;2391;47.212;7.542;2023-02-28T03:48:41;3.53;;;3.33;;
4754;SDS011;2391;47.212;7.542;2023-02-28T03:51:10;4.80;;;4.10;;
4754;SDS011;2391;47.212;7.542;2023-02-28T03:53:40;4.00;;;3.70;;
4754;SDS011;2391;47.212;7.542;2023-02-28T04:01:38;3.47;;;3.27;;
4754;SDS011;2391;47.212;7.542;2023-02-28T04:04:07;3.60;;;3.37;;
4754;SDS011;2391;47.212;7.542;2023-02-28T04:06:34;3.37;;;3.10;;
4754;SDS011;2391;47.212;7.542;2023-02-28T04:09:00;4.13;;;3.40;;
4754;SDS011;2391;47.212;7.542;2023-02-28T04:11:29;3.90;;;3.30;;
4754;SDS011;2391;47.212;7.542;2023-02-28T04:14:09;4.30;;;3.27;;
4754;SDS011;2391;47.212;7.542;2023-02-28T04:16:38;4.10;;;3.70;;
4754;SDS011;2391;47.212;7.542;2023-02-28T04:19:06;4.37;;;3.53;;
4754;SDS011;2391;47.212;7.542;2023-02-28T04:21:37;3.43;;;3.13;;
4754;SDS011;2391;47.212;7.542;2023-02-28T04:24:04;3.60;;;3.30;;
4754;SDS011;2391;47.212;7.542;2023-02-28T04:26:31;3.93;;;3.57;;
4754;SDS011;2391;47.212;7.542;2023-02-28T04:28:59;4.03;;;3.60;;
4754;SDS011;2391;47.212;7.542;2023-02-28T04:31:27;4.30;;;3.57;;
4754;SDS011;2391;47.212;7.542;2023-02-28T04:33:53;6.60;;;4.33;;
4754;SDS011;2391;47.212;7.542;2023-02-28T04:36:18;5.80;;;3.60;;
4754;SDS011;2391;47.212;7.542;2023-02-28T04:38:44;3.77;;;3.47;;
4754;SDS011;2391;47.212;7.542;2023-02-28T04:41:12;3.63;;;3.10;;
4754;SDS011;2391;47.212;7.542;2023-02-28T04:43:38;4.17;;;3.77;;
4754;SDS011;2391;47.212;7.542;2023-02-28T04:46:04;3.70;;;3.40;;
4754;SDS011;2391;47.212;7.542;2023-02-28T04:48:32;3.90;;;3.60;;
4754;SDS011;2391;47.212;7.542;2023-02-28T04:51:00;3.93;;;3.67;;
4754;SDS011;2391;47.212;7.542;2023-02-28T04:53:30;3.83;;;3.53;;
4754;SDS011;2391;47.212;7.542;2023-02-28T04:55:56;3.63;;;3.43;;
4754;SDS011;2391;47.212;7.542;2023-02-28T04:58:23;3.63;;;3.33;;
4754;SDS011;2391;47.212;7.542;2023-02-28T05:00:49;3.90;;;3.60;;
4754;SDS011;2391;47.212;7.542;2023-02-28T05:03:16;5.03;;;3.10;;
4754;SDS011;2391;47.212;7.542;2023-02-28T05:05:42;7.00;;;4.03;;
4754;SDS011;2391;47.212;7.542;2023-02-28T05:08:07;3.60;;;3.30;;
4754;SDS011;2391;47.212;7.542;2023-02-28T05:10:35;4.77;;;4.33;;
4754;SDS011;2391;47.212;7.542;2023-02-28T05:13:01;3.73;;;3.40;;
4754;SDS011;2391;47.212;7.542;2023-02-28T05:15:27;6.17;;;3.80;;
4754;SDS011;2391;47.212;7.542;2023-02-28T05:17:52;4.00;;;3.60;;
4754;SDS011;2391;47.212;7.542;2023-02-28T05:20:18;4.83;;;4.00;;
4754;SDS011;2391;47.212;7.542;2023-02-28T05:22:44;5.40;;;4.03;;
4754;SDS011;2391;47.212;7.542;2023-02-28T05:25:10;3.33;;;3.13;;
4754;SDS011;2391;47.212;7.542;2023-02-28T05:27:40;3.50;;;3.20;;
4754;SDS011;2391;47.212;7.542;2023-02-28T05:30:06;3.37;;;3.17;;
4754;SDS011;2391;47.212;7.542;2023-02-28T05:32:35;3.70;;;3.40;;
4754;SDS011;2391;47.212;7.542;2023-02-28T05:35:07;4.13;;;3.80;;
4754;SDS011;2391;47.212;7.542;2023-02-28T05:37:33;3.47;;;3.23;;
4754;SDS011;2391;47.212;7.542;2023-02-28T05:39:58;3.37;;;3.17;;
4754;SDS011;2391;47.212;7.542;2023-02-28T05:42:24;3.70;;;3.40;;
4754;SDS011;2391;47.212;7.542;2023-02-28T05:44:50;3.73;;;3.43;;
4754;SDS011;2391;47.212;7.542;2023-02-28T05:47:17;4.53;;;3.70;;
4754;SDS011;2391;47.212;7.542;2023-02-28T05:49:43;5.03;;;4.27;;
4754;SDS011;2391;47.212;7.542;2023-02-28T05:52:08;3.50;;;3.27;;
4754;SDS011;2391;47.212;7.542;2023-02-28T05:54:34;3.50;;;3.30;;
4754;SDS011;2391;47.212;7.542;2023-02-28T05:57:00;4.23;;;3.90;;
4754;SDS011;2391;47.212;7.542;2023-02-28T05:59:25;3.67;;;3.20;;
4754;SDS011;2391;47.212;7.542;2023-02-28T06:01:51;4.10;;;3.80;;
4754;SDS011;2391;47.212;7.542;2023-02-28T06:04:19;3.17;;;2.93;;
4754;SDS011;2391;47.212;7.542;2023-02-28T06:06:49;3.90;;;3.60;;
4754;SDS011;2391;47.212;7.542;2023-02-28T06:09:16;3.80;;;3.50;;
4754;SDS011;2391;47.212;7.542;2023-02-28T06:11:43;11.30;;;3.43;;
4754;SDS011;2391;47.212;7.542;2023-02-28T06:14:17;3.63;;;3.33;;
4754;SDS011;2391;47.212;7.542;2023-02-28T06:16:40;5.57;;;3.80;;
4754;SDS011;2391;47.212;7.542;2023-02-28T06:19:06;3.30;;;3.10;;
4754;SDS011;2391;47.212;7.542;2023-02-28T06:21:32;5.73;;;3.80;;
4754;SDS011;2391;47.212;7.542;2023-02-28T06:23:58;4.43;;;2.90;;
4754;SDS011;2391;47.212;7.542;2023-02-28T06:26:24;3.50;;;3.20;;
4754;SDS011;2391;47.212;7.542;2023-02-28T06:28:50;3.13;;;3.03;;
4754;SDS011;2391;47.212;7.542;2023-02-28T06:31:17;3.30;;;3.10;;
4754;SDS011;2391;47.212;7.542;2023-02-28T06:33:43;3.70;;;2.63;;
4754;SDS011;2391;47.212;7.542;2023-02-28T06:36:11;3.70;;;3.40;;
4754;SDS011;2391;47.212;7.542;2023-02-28T06:38:38;3.63;;;3.43;;
4754;SDS011;2391;47.212;7.542;2023-02-28T06:41:05;3.87;;;3.53;;
4754;SDS011;2391;47.212;7.542;2023-02-28T06:43:32;4.57;;;3.90;;
4754;SDS011;2391;47.212;7.542;2023-02-28T06:46:01;4.00;;;3.60;;
4754;SDS011;2391;47.212;7.542;2023-02-28T06:48:29;4.13;;;3.73;;
4754;SDS011;2391;47.212;7.542;2023-02-28T06:51:02;3.63;;;3.30;;
4754;SDS011;2391;47.212;7.542;2023-02-28T06:53:30;3.23;;;3.03;;
4754;SDS011;2391;47.212;7.542;2023-02-28T06:55:56;8.13;;;3.30;;
4754;SDS011;2391;47.212;7.542;2023-02-28T06:58:22;4.40;;;3.37;;
4754;SDS011;2391;47.212;7.542;2023-02-28T07:00:50;2.93;;;2.73;;
4754;SDS011;2391;47.212;7.542;2023-02-28T07:03:16;3.50;;;3.20;;
4754;SDS011;2391;47.212;7.542;2023-02-28T07:05:43;5.10;;;3.60;;
4754;SDS011;2391;47.212;7.542;2023-02-28T07:08:10;3.53;;;3.30;;
4754;SDS011;2391;47.212;7.542;2023-02-28T07:10:37;3.53;;;3.23;;
4754;SDS011;2391;47.212;7.542;2023-02-28T07:13:04;3.67;;;3.30;;
4754;SDS011;2391;47.212;7.542;2023-02-28T07:15:30;3.07;;;2.90;;
4754;SDS011;2391;47.212;7.542;2023-02-28T07:17:56;3.67;;;3.37;;
4754;SDS011;2391;47.212;7.542;2023-02-28T07:20:22;3.47;;;3.17;;
4754;SDS011;2391;47.212;7.542;2023-02-28T07:22:49;3.20;;;2.90;;
4754;SDS011;2391;47.212;7.542;2023-02-28T07:25:18;3.40;;;3.10;;
4754;SDS011;2391;47.212;7.542;2023-02-28T07:27:43;3.13;;;2.93;;
4754;SDS011;2391;47.212;7.542;2023-02-28T07:30:09;2.80;;;2.67;;
4754;SDS011;2391;47.212;7.542;2023-02-28T07:32:36;3.33;;;3.03;;
4754;SDS011;2391;47.212;7.542;2023-02-28T07:35:03;2.77;;;2.60;;
4754;SDS011;2391;47.212;7.542;2023-02-28T07:37:29;4.40;;;3.03;;
4754;SDS011;2391;47.212;7.542;2023-02-28T07:39:56;3.67;;;3.37;;
4754;SDS011;2391;47.212;7.542;2023-02-28T07:42:22;3.47;;;3.17;;
4754;SDS011;2391;47.212;7.542;2023-02-28T07:44:48;6.43;;;3.50;;
4754;SDS011;2391;47.212;7.542;2023-02-28T07:47:14;3.43;;;3.13;;
4754;SDS011;2391;47.212;7.542;2023-02-28T07:49:39;3.30;;;3.00;;
4754;SDS011;2391;47.212;7.542;2023-02-28T07:52:06;2.57;;;2.40;;
4754;SDS011;2391;47.212;7.542;2023-02-28T07:54:32;3.10;;;3.00;;
4754;SDS011;2391;47.212;7.542;2023-02-28T07:56:58;3.50;;;3.20;;
4754;SDS011;2391;47.212;7.542;2023-02-28T07:59:25;3.30;;;2.60;;
4754;SDS011;2391;47.212;7.542;2023-02-28T08:01:51;2.53;;;2.43;;
4754;SDS011;2391;47.212;7.542;2023-02-28T08:04:17;2.57;;;2.47;;
4754;SDS011;2391;47.212;7.542;2023-02-28T08:06:44;3.00;;;2.80;;
4754;SDS011;2391;47.212;7.542;2023-02-28T08:09:09;2.63;;;2.43;;
4754;SDS011;2391;47.212;7.542;2023-02-28T08:11:36;3.20;;;2.63;;
4754;SDS011;2391;47.212;7.542;2023-02-28T08:14:02;7.43;;;3.30;;
4754;SDS011;2391;47.212;7.542;2023-02-28T08:16:28;5.80;;;3.00;;
4754;SDS011;2391;47.212;7.542;2023-02-28T08:18:53;3.20;;;2.90;;
4754;SDS011;2391;47.212;7.542;2023-02-28T08:21:19;3.40;;;3.20;;
4754;SDS011;2391;47.212;7.542;2023-02-28T08:23:49;3.50;;;3.20;;
4754;SDS011;2391;47.212;7.542;2023-02-28T08:26:16;3.50;;;3.20;;
4754;SDS011;2391;47.212;7.542;2023-02-28T08:28:43;3.80;;;3.50;;
4754;SDS011;2391;47.212;7.542;2023-02-28T08:31:10;3.70;;;3.47;;
4754;SDS011;2391;47.212;7.542;2023-02-28T08:33:39;4.27;;;3.20;;
4754;SDS011;2391;47.212;7.542;2023-02-28T08:36:05;5.47;;;2.70;;
4754;SDS011;2391;47.212;7.542;2023-02-28T08:38:32;3.50;;;3.20;;
4754;SDS011;2391;47.212;7.542;2023-02-28T08:40:58;3.20;;;3.00;;
4754;SDS011;2391;47.212;7.542;2023-02-28T08:43:25;4.73;;;3.87;;
4754;SDS011;2391;47.212;7.542;2023-02-28T08:45:52;3.23;;;3.03;;
4754;SDS011;2391;47.212;7.542;2023-02-28T08:48:18;4.03;;;3.67;;
4754;SDS011;2391;47.212;7.542;2023-02-28T08:50:44;3.67;;;3.37;;
4754;SDS011;2391;47.212;7.542;2023-02-28T08:53:10;4.40;;;3.33;;
4754;SDS011;2391;47.212;7.542;2023-02-28T08:55:36;3.90;;;3.50;;
4754;SDS011;2391;47.212;7.542;2023-02-28T08:58:01;4.23;;;3.83;;
4754;SDS011;2391;47.212;7.542;2023-02-28T09:00:27;4.40;;;3.23;;
4754;SDS011;2391;47.212;7.542;2023-02-28T09:02:53;2.97;;;2.77;;
4754;SDS011;2391;47.212;7.542;2023-02-28T09:05:20;2.10;;;2.00;;
4754;SDS011;2391;47.212;7.542;2023-02-28T09:07:46;3.70;;;3.43;;
4754;SDS011;2391;47.212;7.542;2023-02-28T09:10:11;3.33;;;3.13;;
4754;SDS011;2391;47.212;7.542;2023-02-28T09:12:37;4.10;;;3.70;;
4754;SDS011;2391;47.212;7.542;2023-02-28T09:15:04;3.30;;;3.00;;
4754;SDS011;2391;47.212;7.542;2023-02-28T09:17:30;3.73;;;3.43;;
4754;SDS011;2391;47.212;7.542;2023-02-28T09:19:56;3.70;;;3.30;;
4754;SDS011;2391;47.212;7.542;2023-02-28T09:22:22;3.40;;;3.10;;
4754;SDS011;2391;47.212;7.542;2023-02-28T09:24:48;3.57;;;3.37;;
4754;SDS011;2391;47.212;7.542;2023-02-28T09:27:13;4.27;;;3.87;;
4754;SDS011;2391;47.212;7.542;2023-02-28T09:29:39;3.97;;;3.67;;
4754;SDS011;2391;47.212;7.542;2023-02-28T09:32:05;5.73;;;3.73;;
4754;SDS011;2391;47.212;7.542;2023-02-28T09:34:31;3.90;;;3.50;;
4754;SDS011;2391;47.212;7.542;2023-02-28T09:36:56;4.20;;;3.73;;
4754;SDS011;2391;47.212;7.542;2023-02-28T09:39:22;3.17;;;2.97;;
4754;SDS011;2391;47.212;7.542;2023-02-28T09:41:50;3.60;;;3.37;;
4754;SDS011;2391;47.212;7.542;2023-02-28T09:44:22;3.33;;;3.13;;
4754;SDS011;2391;47.212;7.542;2023-02-28T09:46:57;4.03;;;3.73;;
4754;SDS011;2391;47.212;7.542;2023-02-28T09:49:27;4.87;;;3.60;;
4754;SDS011;2391;47.212;7.542;2023-02-28T09:52:02;4.30;;;3.50;;
4754;SDS011;2391;47.212;7.542;2023-02-28T09:54:31;4.03;;;3.73;;
4754;SDS011;2391;47.212;7.542;2023-02-28T09:56:59;3.13;;;2.93;;
4754;SDS011;2391;47.212;7.542;2023-02-28T10:05:08;4.50;;;3.70;;
4754;SDS011;2391;47.212;7.542;2023-02-28T10:13:01;4.00;;;3.63;;
4754;SDS011;2391;47.212;7.542;2023-02-28T10:15:30;4.63;;;4.20;;
4754;SDS011;2391;47.212;7.542;2023-02-28T10:17:58;5.07;;;4.03;;
4754;SDS011;2391;47.212;7.542;2023-02-28T10:20:33;3.57;;;3.37;;
4754;SDS011;2391;47.212;7.542;2023-02-28T10:25:57;4.00;;;3.30;;
4754;SDS011;2391;47.212;7.542;2023-02-28T10:28:24;4.17;;;3.77;;
4754;SDS011;2391;47.212;7.542;2023-02-28T10:30:52;3.40;;;3.10;;
4754;SDS011;2391;47.212;7.542;2023-02-28T10:33:23;4.27;;;3.40;;
4754;SDS011;2391;47.212;7.542;2023-02-28T10:35:53;4.37;;;4.00;;
4754;SDS011;2391;47.212;7.542;2023-02-28T10:38:21;4.10;;;3.67;;
4754;SDS011;2391;47.212;7.542;2023-02-28T10:40:48;4.23;;;3.83;;
4754;SDS011;2391;47.212;7.542;2023-02-28T10:45:55;8.07;;;3.80;;
4754;SDS011;2391;47.212;7.542;2023-02-28T10:48:39;7.90;;;3.93;;
4754;SDS011;2391;47.212;7.542;2023-02-28T10:51:15;4.20;;;3.80;;
4754;SDS011;2391;47.212;7.542;2023-02-28T10:53:50;3.70;;;3.40;;
4754;SDS011;2391;47.212;7.542;2023-02-28T10:56:19;5.97;;;3.50;;
4754;SDS011;2391;47.212;7.542;2023-02-28T11:01:39;4.27;;;3.87;;
4754;SDS011;2391;47.212;7.542;2023-02-28T11:03:49;4.50;;;4.10;;
4754;SDS011;2391;47.212;7.542;2023-02-28T11:06:20;4.67;;;4.27;;
4754;SDS011;2391;47.212;7.542;2023-02-28T11:08:59;4.47;;;4.17;;
4754;SDS011;2391;47.212;7.542;2023-02-28T11:11:24;5.30;;;4.73;;
4754;SDS011;2391;47.212;7.542;2023-02-28T11:13:58;6.23;;;3.73;;
4754;SDS011;2391;47.212;7.542;2023-02-28T11:16:34;4.93;;;4.43;;
4754;SDS011;2391;47.212;7.542;2023-02-28T11:19:03;11.60;;;4.00;;
4754;SDS011;2391;47.212;7.542;2023-02-28T11:21:32;6.00;;;4.77;;
4754;SDS011;2391;47.212;7.542;2023-02-28T11:24:18;5.80;;;4.20;;
4754;SDS011;2391;47.212;7.542;2023-02-28T11:26:58;6.13;;;4.93;;
4754;SDS011;2391;47.212;7.542;2023-02-28T11:29:26;5.40;;;4.13;;
4754;SDS011;2391;47.212;7.542;2023-02-28T11:34:36;6.30;;;4.83;;
4754;SDS011;2391;47.212;7.542;2023-02-28T11:37:03;8.90;;;4.10;;
4754;SDS011;2391;47.212;7.542;2023-02-28T11:39:32;4.03;;;3.70;;
4754;SDS011;2391;47.212;7.542;2023-02-28T11:47:31;4.00;;;3.53;;
4754;SDS011;2391;47.212;7.542;2023-02-28T11:50:07;5.13;;;4.63;;
4754;SDS011;2391;47.212;7.542;2023-02-28T11:52:55;5.80;;;4.70;;
4754;SDS011;2391;47.212;7.542;2023-02-28T11:55:35;5.20;;;4.67;;
4754;SDS011;2391;47.212;7.542;2023-02-28T11:58:26;5.43;;;4.60;;
4754;SDS011;2391;47.212;7.542;2023-02-28T12:11:51;5.00;;;4.50;;
4754;SDS011;2391;47.212;7.542;2023-02-28T12:22:24;5.53;;;4.93;;
4754;SDS011;2391;47.212;7.542;2023-02-28T12:27:39;4.80;;;4.40;;
4754;SDS011;2391;47.212;7.542;2023-02-28T12:32:53;5.27;;;4.67;;
4754;SDS011;2391;47.212;7.542;2023-02-28T12:35:31;4.80;;;4.30;;
4754;SDS011;2391;47.212;7.542;2023-02-28T12:38:02;9.30;;;4.90;;
4754;SDS011;2391;47.212;7.542;2023-02-28T12:43:16;5.03;;;4.57;;
4754;SDS011;2391;47.212;7.542;2023-02-28T12:48:21;5.17;;;4.30;;
4754;SDS011;2391;47.212;7.542;2023-02-28T12:50:49;5.70;;;5.10;;
4754;SDS011;2391;47.212;7.542;2023-02-28T12:58:45;5.70;;;4.60;;
4754;SDS011;2391;47.212;7.542;2023-02-28T13:06:59;7.13;;;4.40;;
4754;SDS011;2391;47.212;7.542;2023-02-28T13:09:40;4.33;;;3.93;;
4754;SDS011;2391;47.212;7.542;2023-02-28T13:12:12;4.00;;;3.70;;
4754;SDS011;2391;47.212;7.542;2023-02-28T13:14:39;4.93;;;3.80;;
4754;SDS011;2391;47.212;7.542;2023-02-28T13:22:19;4.90;;;4.40;;
4754;SDS011;2391;47.212;7.542;2023-02-28T13:24:47;4.57;;;4.27;;
4754;SDS011;2391;47.212;7.542;2023-02-28T13:30:01;5.43;;;4.57;;
4754;SDS011;2391;47.212;7.542;2023-02-28T13:32:30;4.90;;;4.50;;
4754;SDS011;2391;47.212;7.542;2023-02-28T13:42:47;4.90;;;4.40;;
4754;SDS011;2391;47.212;7.542;2023-02-28T13:45:23;5.53;;;4.40;;
4754;SDS011;2391;47.212;7.542;2023-02-28T13:47:53;5.07;;;4.57;;
4754;SDS011;2391;47.212;7.542;2023-02-28T13:50:32;5.50;;;4.80;;
4754;SDS011;2391;47.212;7.542;2023-02-28T13:58:25;7.57;;;4.17;;
4754;SDS011;2391;47.212;7.542;2023-02-28T14:06:51;4.83;;;4.37;;
4754;SDS011;2391;47.212;7.542;2023-02-28T14:11:52;5.00;;;4.37;;
4754;SDS011;2391;47.212;7.542;2023-02-28T14:17:06;4.43;;;4.03;;
4754;SDS011;2391;47.212;7.542;2023-02-28T14:19:36;8.93;;;3.80;;
4754;SDS011;2391;47.212;7.542;2023-02-28T14:38:59;7.87;;;4.73;;
4754;SDS011;2391;47.212;7.542;2023-02-28T14:41:39;5.27;;;4.77;;
4754;SDS011;2391;47.212;7.542;2023-02-28T14:44:20;5.30;;;4.80;;
4754;SDS011;2391;47.212;7.542;2023-02-28T14:46:52;4.67;;;4.27;;
4754;SDS011;2391;47.212;7.542;2023-02-28T14:49:29;5.97;;;4.90;;
4754;SDS011;2391;47.212;7.542;2023-02-28T14:52:02;4.63;;;4.23;;
4754;SDS011;2391;47.212;7.542;2023-02-28T14:54:37;6.50;;;4.40;;
4754;SDS011;2391;47.212;7.542;2023-02-28T14:57:03;4.67;;;4.27;;
4754;SDS011;2391;47.212;7.542;2023-02-28T14:59:32;5.30;;;4.80;;
4754;SDS011;2391;47.212;7.542;2023-02-28T15:02:15;3.13;;;2.90;;
4754;SDS011;2391;47.212;7.542;2023-02-28T15:04:42;5.57;;;4.97;;
4754;SDS011;2391;47.212;7.542;2023-02-28T15:07:13;6.73;;;4.47;;
4754;SDS011;2391;47.212;7.542;2023-02-28T15:09:40;5.40;;;4.67;;
4754;SDS011;2391;47.212;7.542;2023-02-28T15:12:06;7.70;;;5.10;;
4754;SDS011;2391;47.212;7.542;2023-02-28T15:14:32;5.27;;;4.77;;
4754;SDS011;2391;47.212;7.542;2023-02-28T15:17:05;6.00;;;3.13;;
4754;SDS011;2391;47.212;7.542;2023-02-28T15:19:34;5.93;;;5.30;;
4754;SDS011;2391;47.212;7.542;2023-02-28T15:22:11;6.60;;;4.90;;
4754;SDS011;2391;47.212;7.542;2023-02-28T15:27:06;5.53;;;4.70;;
4754;SDS011;2391;47.212;7.542;2023-02-28T15:29:37;5.00;;;4.17;;
4754;SDS011;2391;47.212;7.542;2023-02-28T15:32:24;4.43;;;4.07;;
4754;SDS011;2391;47.212;7.542;2023-02-28T15:34:56;6.50;;;5.50;;
4754;SDS011;2391;47.212;7.542;2023-02-28T15:37:27;6.60;;;5.60;;
4754;SDS011;2391;47.212;7.542;2023-02-28T15:40:13;6.40;;;5.10;;
4754;SDS011;2391;47.212;7.542;2023-02-28T15:42:57;4.97;;;4.50;;
4754;SDS011;2391;47.212;7.542;2023-02-28T15:48:02;4.47;;;4.10;;
4754;SDS011;2391;47.212;7.542;2023-02-28T15:50:28;14.40;;;5.23;;
4754;SDS011;2391;47.212;7.542;2023-02-28T15:52:54;6.77;;;5.80;;
4754;SDS011;2391;47.212;7.542;2023-02-28T15:55:21;6.77;;;5.90;;
4754;SDS011;2391;47.212;7.542;2023-02-28T15:57:51;4.67;;;3.90;;
4754;SDS011;2391;47.212;7.542;2023-02-28T16:00:25;6.33;;;5.17;;
4754;SDS011;2391;47.212;7.542;2023-02-28T16:02:52;5.13;;;4.73;;
4754;SDS011;2391;47.212;7.542;2023-02-28T16:05:25;5.17;;;4.70;;
4754;SDS011;2391;47.212;7.542;2023-02-28T16:07:55;5.87;;;4.63;;
4754;SDS011;2391;47.212;7.542;2023-02-28T16:10:22;4.77;;;3.97;;
4754;SDS011;2391;47.212;7.542;2023-02-28T16:12:52;5.10;;;4.10;;
4754;SDS011;2391;47.212;7.542;2023-02-28T16:15:21;6.67;;;4.80;;
4754;SDS011;2391;47.212;7.542;2023-02-28T16:17:51;6.07;;;5.17;;
4754;SDS011;2391;47.212;7.542;2023-02-28T16:20:20;6.90;;;5.30;;
4754;SDS011;2391;47.212;7.542;2023-02-28T16:22:51;6.07;;;5.07;;
4754;SDS011;2391;47.212;7.542;2023-02-28T16:25:18;6.70;;;5.30;;
4754;SDS011;2391;47.212;7.542;2023-02-28T16:27:47;5.53;;;4.83;;
4754;SDS011;2391;47.212;7.542;2023-02-28T16:30:27;5.50;;;5.00;;
4754;SDS011;2391;47.212;7.542;2023-02-28T16:32:51;5.90;;;5.10;;
4754;SDS011;2391;47.212;7.542;2023-02-28T16:35:19;7.43;;;5.73;;
4754;SDS011;2391;47.212;7.542;2023-02-28T16:37:45;5.33;;;4.83;;
4754;SDS011;2391;47.212;7.542;2023-02-28T16:40:15;7.00;;;5.47;;
4754;SDS011;2391;47.212;7.542;2023-02-28T16:42:46;4.83;;;4.33;;
4754;SDS011;2391;47.212;7.542;2023-02-28T16:45:19;10.70;;;5.70;;
4754;SDS011;2391;47.212;7.542;2023-02-28T16:47:45;7.83;;;4.90;;
4754;SDS011;2391;47.212;7.542;2023-02-28T16:50:15;6.57;;;5.60;;
4754;SDS011;2391;47.212;7.542;2023-02-28T16:52:43;6.60;;;5.70;;
4754;SDS011;2391;47.212;7.542;2023-02-28T16:55:09;7.23;;;5.50;;
4754;SDS011;2391;47.212;7.542;2023-02-28T16:57:36;6.80;;;5.63;;
4754;SDS011;2391;47.212;7.542;2023-02-28T17:00:02;8.77;;;6.40;;
4754;SDS011;2391;47.212;7.542;2023-02-28T17:02:29;8.07;;;5.97;;
4754;SDS011;2391;47.212;7.542;2023-02-28T17:04:55;7.50;;;6.30;;
4754;SDS011;2391;47.212;7.542;2023-02-28T17:07:21;7.37;;;5.33;;
4754;SDS011;2391;47.212;7.542;2023-02-28T17:09:47;4.80;;;4.30;;
4754;SDS011;2391;47.212;7.542;2023-02-28T17:12:13;9.07;;;5.27;;
4754;SDS011;2391;47.212;7.542;2023-02-28T17:14:40;6.20;;;4.77;;
4754;SDS011;2391;47.212;7.542;2023-02-28T17:17:06;7.87;;;5.77;;
4754;SDS011;2391;47.212;7.542;2023-02-28T17:19:32;7.80;;;5.47;;
4754;SDS011;2391;47.212;7.542;2023-02-28T17:21:59;9.50;;;6.00;;
4754;SDS011;2391;47.212;7.542;2023-02-28T17:24:26;8.80;;;6.67;;
4754;SDS011;2391;47.212;7.542;2023-02-28T17:26:52;9.80;;;6.70;;
4754;SDS011;2391;47.212;7.542;2023-02-28T17:29:18;9.10;;;6.47;;
4754;SDS011;2391;47.212;7.542;2023-02-28T17:31:46;7.60;;;6.80;;
4754;SDS011;2391;47.212;7.542;2023-02-28T17:34:12;8.80;;;6.17;;
4754;SDS011;2391;47.212;7.542;2023-02-28T17:36:41;7.93;;;7.10;;
4754;SDS011;2391;47.212;7.542;2023-02-28T17:39:08;8.13;;;5.80;;
4754;SDS011;2391;47.212;7.542;2023-02-28T17:41:35;7.43;;;6.17;;
4754;SDS011;2391;47.212;7.542;2023-02-28T17:44:01;9.93;;;6.43;;
4754;SDS011;2391;47.212;7.542;2023-02-28T17:46:27;6.57;;;5.90;;
4754;SDS011;2391;47.212;7.542;2023-02-28T17:48:53;6.70;;;6.03;;
4754;SDS011;2391;47.212;7.542;2023-02-28T17:51:20;10.00;;;6.90;;
4754;SDS011;2391;47.212;7.542;2023-02-28T17:53:47;8.90;;;7.20;;
4754;SDS011;2391;47.212;7.542;2023-02-28T17:56:21;8.87;;;7.10;;
4754;SDS011;2391;47.212;7.542;2023-02-28T17:58:46;6.80;;;6.07;;
4754;SDS011;2391;47.212;7.542;2023-02-28T18:01:12;9.90;;;6.57;;
4754;SDS011;2391;47.212;7.542;2023-02-28T18:03:38;8.27;;;6.43;;